トビリシ の空港の天気 - METARとTAF

トビリシ国際空港 ( UGTB / TBS ) - グルジア トビリシ
飛行場実況気象(Metar)
観測時間09/22 01:00 GET (09/21 21:00 UTC)
風向・風速北北東 5m/s
視程10km以上
天気現象
全天の4割程度の雲 雲底高度 1520m
気温25℃
湿度36%
気圧1017hPa
METARUGTB 212100Z 03009KT 360V060 9999 SCT050CB 25/09 Q1017 R13R/CLRD70 NOSIG
過去の天気等 Google飛行場航空写真 Wunderground天気予報

過去48時間のMETAR

飛行場予報(TAF)
発表時間: 9/21 21:00 GET (9/21 17:00 UTC)
予報対象時間: 21日22時 GET ~ 22日22時 GET
風向・風速不定 1m/s
視程10km以上
全天の4割程度の積乱雲 雲底高度 1,520m
21日22時 GET ~ 22日7時 GET に一時的に
風向・風速東北東 5m/s
22日2時 GET ~ 22日4時 GET に徐々に
視程10km以上
なし
22日12時 GET ~ 22日18時 GET に一時的に
風向・風速南東 5m/s
22日15時 GET ~ 22日17時 GET に徐々に
全天の4割程度の積乱雲 雲底高度 1,370m
TAF UGTB 211700Z 2118/2218 VRB02KT 9999 SCT050CB TX30/2212Z TN19/2202Z
TEMPO 2118/2203 06009KT
BECMG 2122/2124 CAVOK
TEMPO 2208/2214 14009KT
BECMG 2211/2213 SCT045CB